Terminal Aerodrome Forecast
Issued by NWS Austin/San Antonio, TX

Home | Current Version | Previous Version | Text Only | Print | Product List | Glossary On
Versions: 1 2 3 4 5 6 7 8 9 10 11 12 13 14 15
000
FTUS44 KEWX 141100
TAFAUS
TAF
KAUS 141121Z 1412/1518 21007KT P6SM SCT150
     FM141800 18009KT P6SM SCT060 SCT150
     FM150900 VRB03KT P6SM SCT040 BKN100 PROB30 1512/1518 3SM -SHRA
      BKN040=

USA.gov is the U.S. government's official web portal to all federal, state and local government web resources and services.